CheckWX is a tool to help pilots better visualize weather data.  It is not intended as a substitute for an official pre-flight weather briefing.

13:19:50 UTC

SARE METAR
Resistencia International Airport
Resistencia, Argentina
Current

1 hour ago

SARE 161200Z 24008KT 9999 OVC009 14/14 Q1020
Observed
Jun-16 @ 12:00 UTC
Wind
  • 240° at 8 KTS
Visibility
10,000+ meters
Flight Rules
IFR
Cloud Levels
  • Overcast at 900' AGL
Temperature
14°C / 57°F
Dewpoint
14°C / 57°F
Humidity
100%
Altimeter
30.12" Hg
Pressure
1019.92 hPa
Previous

2 hours ago

SARE 161100Z 25008KT 9999 OVC007 13/13 Q1019
Observed
Jun-16 @ 11:00 UTC
Wind
  • 250° at 8 KTS
Visibility
10,000+ meters
Flight Rules
IFR
Cloud Levels
  • Overcast at 700' AGL
Temperature
13°C / 55°F
Dewpoint
13°C / 55°F
Humidity
100%
Altimeter
30.09" Hg
Pressure
1018.92 hPa
Previous

3 hours ago

SARE 161000Z 23009KT 9999 OVC007 14/14 Q1018
Observed
Jun-16 @ 10:00 UTC
Wind
  • 230° at 9 KTS
Visibility
10,000+ meters
Flight Rules
IFR
Cloud Levels
  • Overcast at 700' AGL
Temperature
14°C / 57°F
Dewpoint
14°C / 57°F
Humidity
100%
Altimeter
30.06" Hg
Pressure
1017.92 hPa